sensor_id;sensor_type;location;lat;lon;timestamp;temperature;humidity
1461;DHT22;724;49.910;12.530;2023-04-28T00:01:51;4.40;1.00
1461;DHT22;724;49.910;12.530;2023-04-28T00:04:18;4.40;1.00
1461;DHT22;724;49.910;12.530;2023-04-28T00:06:44;4.50;1.00
1461;DHT22;724;49.910;12.530;2023-04-28T00:09:11;4.60;1.00
1461;DHT22;724;49.910;12.530;2023-04-28T00:11:38;4.60;1.00
1461;DHT22;724;49.910;12.530;2023-04-28T00:14:06;4.60;1.00
1461;DHT22;724;49.910;12.530;2023-04-28T00:16:33;4.60;1.00
1461;DHT22;724;49.910;12.530;2023-04-28T00:19:00;4.60;1.00
1461;DHT22;724;49.910;12.530;2023-04-28T00:21:27;4.60;1.00
1461;DHT22;724;49.910;12.530;2023-04-28T00:23:54;4.70;1.00
1461;DHT22;724;49.910;12.530;2023-04-28T00:26:20;4.60;1.00
1461;DHT22;724;49.910;12.530;2023-04-28T00:28:47;4.60;1.00
1461;DHT22;724;49.910;12.530;2023-04-28T00:31:15;4.70;1.00
1461;DHT22;724;49.910;12.530;2023-04-28T00:33:43;4.60;1.00
1461;DHT22;724;49.910;12.530;2023-04-28T00:36:10;4.60;1.00
1461;DHT22;724;49.910;12.530;2023-04-28T00:38:36;4.60;1.00
1461;DHT22;724;49.910;12.530;2023-04-28T00:41:03;4.60;1.00
1461;DHT22;724;49.910;12.530;2023-04-28T00:43:30;4.60;1.00
1461;DHT22;724;49.910;12.530;2023-04-28T00:45:57;4.50;1.00
1461;DHT22;724;49.910;12.530;2023-04-28T00:48:26;4.50;1.00
1461;DHT22;724;49.910;12.530;2023-04-28T00:50:54;4.50;1.00
1461;DHT22;724;49.910;12.530;2023-04-28T00:53:20;4.60;1.00
1461;DHT22;724;49.910;12.530;2023-04-28T00:55:48;4.60;1.00
1461;DHT22;724;49.910;12.530;2023-04-28T00:58:15;4.70;1.00
1461;DHT22;724;49.910;12.530;2023-04-28T01:00:42;4.70;1.00
1461;DHT22;724;49.910;12.530;2023-04-28T01:03:09;4.70;1.00
1461;DHT22;724;49.910;12.530;2023-04-28T01:05:38;4.70;1.00
1461;DHT22;724;49.910;12.530;2023-04-28T01:08:05;4.70;1.00
1461;DHT22;724;49.910;12.530;2023-04-28T01:10:31;4.60;1.00
1461;DHT22;724;49.910;12.530;2023-04-28T01:12:58;4.60;1.00
1461;DHT22;724;49.910;12.530;2023-04-28T01:15:25;4.70;1.00
1461;DHT22;724;49.910;12.530;2023-04-28T01:17:52;4.70;1.00
1461;DHT22;724;49.910;12.530;2023-04-28T01:20:19;4.70;1.00
1461;DHT22;724;49.910;12.530;2023-04-28T01:22:47;4.70;1.00
1461;DHT22;724;49.910;12.530;2023-04-28T01:25:15;4.70;1.00
1461;DHT22;724;49.910;12.530;2023-04-28T01:27:42;4.70;1.00
1461;DHT22;724;49.910;12.530;2023-04-28T01:30:10;4.70;1.00
1461;DHT22;724;49.910;12.530;2023-04-28T01:32:36;4.70;1.00
1461;DHT22;724;49.910;12.530;2023-04-28T01:35:04;4.80;1.00
1461;DHT22;724;49.910;12.530;2023-04-28T01:37:30;4.90;1.00
1461;DHT22;724;49.910;12.530;2023-04-28T01:39:57;4.90;1.00
1461;DHT22;724;49.910;12.530;2023-04-28T01:42:25;5.00;1.00
1461;DHT22;724;49.910;12.530;2023-04-28T01:44:52;5.00;1.00
1461;DHT22;724;49.910;12.530;2023-04-28T01:47:19;4.90;1.00
1461;DHT22;724;49.910;12.530;2023-04-28T01:49:46;4.90;1.00
1461;DHT22;724;49.910;12.530;2023-04-28T01:52:14;4.90;1.00
1461;DHT22;724;49.910;12.530;2023-04-28T01:54:41;4.80;1.00
1461;DHT22;724;49.910;12.530;2023-04-28T01:57:07;4.80;1.00
1461;DHT22;724;49.910;12.530;2023-04-28T01:59:35;4.80;1.00
1461;DHT22;724;49.910;12.530;2023-04-28T02:02:02;4.80;1.00
1461;DHT22;724;49.910;12.530;2023-04-28T02:04:29;4.70;1.00
1461;DHT22;724;49.910;12.530;2023-04-28T02:06:56;4.70;1.00
1461;DHT22;724;49.910;12.530;2023-04-28T02:09:23;4.60;1.00
1461;DHT22;724;49.910;12.530;2023-04-28T02:11:50;4.60;1.00
1461;DHT22;724;49.910;12.530;2023-04-28T02:14:16;4.60;1.00
1461;DHT22;724;49.910;12.530;2023-04-28T02:16:45;4.60;1.00
1461;DHT22;724;49.910;12.530;2023-04-28T02:19:11;4.50;1.00
1461;DHT22;724;49.910;12.530;2023-04-28T02:21:38;4.50;1.00
1461;DHT22;724;49.910;12.530;2023-04-28T02:24:06;4.40;1.00
1461;DHT22;724;49.910;12.530;2023-04-28T02:26:33;4.40;1.00
1461;DHT22;724;49.910;12.530;2023-04-28T02:29:00;4.40;1.00
1461;DHT22;724;49.910;12.530;2023-04-28T02:31:28;4.40;1.00
1461;DHT22;724;49.910;12.530;2023-04-28T02:33:57;4.40;1.00
1461;DHT22;724;49.910;12.530;2023-04-28T02:36:24;4.50;1.00
1461;DHT22;724;49.910;12.530;2023-04-28T02:38:52;4.60;1.00
1461;DHT22;724;49.910;12.530;2023-04-28T02:41:19;4.60;1.00
1461;DHT22;724;49.910;12.530;2023-04-28T02:43:45;4.60;1.00
1461;DHT22;724;49.910;12.530;2023-04-28T02:46:12;4.70;1.00
1461;DHT22;724;49.910;12.530;2023-04-28T02:48:39;4.80;1.00
1461;DHT22;724;49.910;12.530;2023-04-28T02:51:07;4.90;1.00
1461;DHT22;724;49.910;12.530;2023-04-28T02:53:34;4.90;1.00
1461;DHT22;724;49.910;12.530;2023-04-28T02:56:01;4.90;1.00
1461;DHT22;724;49.910;12.530;2023-04-28T02:58:29;4.90;1.00
1461;DHT22;724;49.910;12.530;2023-04-28T03:00:55;4.90;1.00
1461;DHT22;724;49.910;12.530;2023-04-28T03:03:22;4.90;1.00
1461;DHT22;724;49.910;12.530;2023-04-28T03:05:49;4.90;1.00
1461;DHT22;724;49.910;12.530;2023-04-28T03:08:17;4.80;1.00
1461;DHT22;724;49.910;12.530;2023-04-28T03:10:45;4.80;1.00
1461;DHT22;724;49.910;12.530;2023-04-28T03:13:12;4.90;1.00
1461;DHT22;724;49.910;12.530;2023-04-28T03:15:38;4.90;1.00
1461;DHT22;724;49.910;12.530;2023-04-28T03:18:05;4.80;1.00
1461;DHT22;724;49.910;12.530;2023-04-28T03:20:32;4.80;1.00
1461;DHT22;724;49.910;12.530;2023-04-28T03:22:59;4.80;1.00
1461;DHT22;724;49.910;12.530;2023-04-28T03:25:27;4.80;1.00
1461;DHT22;724;49.910;12.530;2023-04-28T03:27:54;4.90;1.00
1461;DHT22;724;49.910;12.530;2023-04-28T03:30:21;4.90;1.00
1461;DHT22;724;49.910;12.530;2023-04-28T03:32:48;4.80;1.00
1461;DHT22;724;49.910;12.530;2023-04-28T03:35:15;4.70;1.00
1461;DHT22;724;49.910;12.530;2023-04-28T03:37:42;4.80;1.00
1461;DHT22;724;49.910;12.530;2023-04-28T03:40:09;4.70;1.00
1461;DHT22;724;49.910;12.530;2023-04-28T03:42:38;4.60;1.00
1461;DHT22;724;49.910;12.530;2023-04-28T03:45:05;4.60;1.00
1461;DHT22;724;49.910;12.530;2023-04-28T03:47:32;4.60;1.00
1461;DHT22;724;49.910;12.530;2023-04-28T03:50:00;4.60;1.00
1461;DHT22;724;49.910;12.530;2023-04-28T03:52:26;4.70;1.00
1461;DHT22;724;49.910;12.530;2023-04-28T03:54:53;4.80;1.00
1461;DHT22;724;49.910;12.530;2023-04-28T03:57:20;4.80;99.90
1461;DHT22;724;49.910;12.530;2023-04-28T03:59:48;4.70;99.90
1461;DHT22;724;49.910;12.530;2023-04-28T04:02:15;4.70;99.90
1461;DHT22;724;49.910;12.530;2023-04-28T04:04:42;4.70;99.90
1461;DHT22;724;49.910;12.530;2023-04-28T04:07:09;4.70;99.90
1461;DHT22;724;49.910;12.530;2023-04-28T04:09:36;4.80;99.90
1461;DHT22;724;49.910;12.530;2023-04-28T04:12:04;4.80;1.00
1461;DHT22;724;49.910;12.530;2023-04-28T04:14:31;4.80;99.90
1461;DHT22;724;49.910;12.530;2023-04-28T04:16:59;4.80;99.90
1461;DHT22;724;49.910;12.530;2023-04-28T04:19:25;4.70;99.90
1461;DHT22;724;49.910;12.530;2023-04-28T04:21:52;4.70;99.90
1461;DHT22;724;49.910;12.530;2023-04-28T04:24:19;4.70;99.90
1461;DHT22;724;49.910;12.530;2023-04-28T04:26:46;4.70;99.90
1461;DHT22;724;49.910;12.530;2023-04-28T04:29:12;4.70;99.90
1461;DHT22;724;49.910;12.530;2023-04-28T04:31:39;4.80;99.90
1461;DHT22;724;49.910;12.530;2023-04-28T04:34:07;4.80;99.90
1461;DHT22;724;49.910;12.530;2023-04-28T04:36:35;4.90;99.90
1461;DHT22;724;49.910;12.530;2023-04-28T04:39:02;4.90;99.90
1461;DHT22;724;49.910;12.530;2023-04-28T04:41:29;4.90;99.90
1461;DHT22;724;49.910;12.530;2023-04-28T04:43:56;4.80;99.90
1461;DHT22;724;49.910;12.530;2023-04-28T04:46:22;4.90;99.90
1461;DHT22;724;49.910;12.530;2023-04-28T04:48:49;5.10;99.90
1461;DHT22;724;49.910;12.530;2023-04-28T04:51:17;5.10;99.90
1461;DHT22;724;49.910;12.530;2023-04-28T04:53:44;5.00;99.90
1461;DHT22;724;49.910;12.530;2023-04-28T04:56:11;5.10;99.90
1461;DHT22;724;49.910;12.530;2023-04-28T04:58:38;5.00;99.90
1461;DHT22;724;49.910;12.530;2023-04-28T05:01:06;5.10;99.90
1461;DHT22;724;49.910;12.530;2023-04-28T05:03:33;5.00;99.90
1461;DHT22;724;49.910;12.530;2023-04-28T05:06:00;5.00;99.90
1461;DHT22;724;49.910;12.530;2023-04-28T05:08:29;5.20;99.90
1461;DHT22;724;49.910;12.530;2023-04-28T05:10:56;5.10;99.90
1461;DHT22;724;49.910;12.530;2023-04-28T05:13:23;5.10;99.90
1461;DHT22;724;49.910;12.530;2023-04-28T05:15:50;5.10;99.90
1461;DHT22;724;49.910;12.530;2023-04-28T05:18:16;5.10;99.90
1461;DHT22;724;49.910;12.530;2023-04-28T05:20:43;5.10;99.90
1461;DHT22;724;49.910;12.530;2023-04-28T05:23:10;5.20;99.90
1461;DHT22;724;49.910;12.530;2023-04-28T05:25:38;5.10;99.90
1461;DHT22;724;49.910;12.530;2023-04-28T05:28:08;5.20;99.90
1461;DHT22;724;49.910;12.530;2023-04-28T05:30:35;5.50;99.90
1461;DHT22;724;49.910;12.530;2023-04-28T05:33:02;5.60;99.90
1461;DHT22;724;49.910;12.530;2023-04-28T05:35:28;5.80;99.90
1461;DHT22;724;49.910;12.530;2023-04-28T05:37:56;5.70;99.90
1461;DHT22;724;49.910;12.530;2023-04-28T05:40:23;5.70;99.90
1461;DHT22;724;49.910;12.530;2023-04-28T05:42:52;5.80;99.90
1461;DHT22;724;49.910;12.530;2023-04-28T05:45:18;5.70;99.90
1461;DHT22;724;49.910;12.530;2023-04-28T05:47:46;5.70;99.90
1461;DHT22;724;49.910;12.530;2023-04-28T05:50:12;5.50;99.90
1461;DHT22;724;49.910;12.530;2023-04-28T05:52:39;5.80;99.90
1461;DHT22;724;49.910;12.530;2023-04-28T05:55:06;6.00;99.90
1461;DHT22;724;49.910;12.530;2023-04-28T05:57:34;6.70;99.90
1461;DHT22;724;49.910;12.530;2023-04-28T06:00:02;7.20;99.90
1461;DHT22;724;49.910;12.530;2023-04-28T06:02:29;6.80;99.90
1461;DHT22;724;49.910;12.530;2023-04-28T06:04:56;7.30;99.90
1461;DHT22;724;49.910;12.530;2023-04-28T06:07:22;7.30;99.90
1461;DHT22;724;49.910;12.530;2023-04-28T06:09:49;7.10;99.90
1461;DHT22;724;49.910;12.530;2023-04-28T06:12:16;6.90;99.90
1461;DHT22;724;49.910;12.530;2023-04-28T06:14:43;6.50;99.90
1461;DHT22;724;49.910;12.530;2023-04-28T06:17:12;6.40;99.90
1461;DHT22;724;49.910;12.530;2023-04-28T06:19:38;6.60;99.90
1461;DHT22;724;49.910;12.530;2023-04-28T06:22:05;6.60;99.90
1461;DHT22;724;49.910;12.530;2023-04-28T06:24:32;6.80;99.90
1461;DHT22;724;49.910;12.530;2023-04-28T06:26:59;6.60;99.90
1461;DHT22;724;49.910;12.530;2023-04-28T06:29:25;6.70;99.90
1461;DHT22;724;49.910;12.530;2023-04-28T06:31:52;6.40;99.90
1461;DHT22;724;49.910;12.530;2023-04-28T06:34:23;6.40;99.90
1461;DHT22;724;49.910;12.530;2023-04-28T06:36:51;6.50;99.90
1461;DHT22;724;49.910;12.530;2023-04-28T06:39:20;6.70;99.90
1461;DHT22;724;49.910;12.530;2023-04-28T06:41:47;6.60;99.90
1461;DHT22;724;49.910;12.530;2023-04-28T06:44:13;6.60;99.90
1461;DHT22;724;49.910;12.530;2023-04-28T06:46:40;6.70;99.90
1461;DHT22;724;49.910;12.530;2023-04-28T06:49:07;6.90;99.90
1461;DHT22;724;49.910;12.530;2023-04-28T06:51:36;7.10;99.90
1461;DHT22;724;49.910;12.530;2023-04-28T06:54:03;7.20;99.90
1461;DHT22;724;49.910;12.530;2023-04-28T06:56:30;6.90;99.90
1461;DHT22;724;49.910;12.530;2023-04-28T06:58:57;7.10;99.90
1461;DHT22;724;49.910;12.530;2023-04-28T07:01:24;7.20;99.90
1461;DHT22;724;49.910;12.530;2023-04-28T07:03:51;7.00;99.90
1461;DHT22;724;49.910;12.530;2023-04-28T07:06:17;6.90;99.90
1461;DHT22;724;49.910;12.530;2023-04-28T07:08:46;6.90;99.90
1461;DHT22;724;49.910;12.530;2023-04-28T07:11:13;7.00;99.90
1461;DHT22;724;49.910;12.530;2023-04-28T07:13:42;7.30;99.90
1461;DHT22;724;49.910;12.530;2023-04-28T07:16:10;7.10;99.90
1461;DHT22;724;49.910;12.530;2023-04-28T07:18:37;7.20;99.90
1461;DHT22;724;49.910;12.530;2023-04-28T07:21:04;7.20;99.90
1461;DHT22;724;49.910;12.530;2023-04-28T07:23:31;6.90;99.90
1461;DHT22;724;49.910;12.530;2023-04-28T07:25:59;7.10;99.90
1461;DHT22;724;49.910;12.530;2023-04-28T07:28:27;7.10;99.90
1461;DHT22;724;49.910;12.530;2023-04-28T07:30:53;7.00;99.90
1461;DHT22;724;49.910;12.530;2023-04-28T07:33:20;6.90;99.90
1461;DHT22;724;49.910;12.530;2023-04-28T07:35:47;7.00;99.90
1461;DHT22;724;49.910;12.530;2023-04-28T07:38:16;7.00;99.90
1461;DHT22;724;49.910;12.530;2023-04-28T07:40:45;7.20;99.90
1461;DHT22;724;49.910;12.530;2023-04-28T07:43:13;7.30;99.90
1461;DHT22;724;49.910;12.530;2023-04-28T07:45:40;7.60;99.90
1461;DHT22;724;49.910;12.530;2023-04-28T07:48:09;7.40;99.90
1461;DHT22;724;49.910;12.530;2023-04-28T07:50:36;7.50;99.90
1461;DHT22;724;49.910;12.530;2023-04-28T07:53:03;7.60;99.90
1461;DHT22;724;49.910;12.530;2023-04-28T07:55:30;7.50;99.90
1461;DHT22;724;49.910;12.530;2023-04-28T07:57:57;7.60;99.90
1461;DHT22;724;49.910;12.530;2023-04-28T08:00:26;7.40;99.90
1461;DHT22;724;49.910;12.530;2023-04-28T08:02:52;7.20;99.90
1461;DHT22;724;49.910;12.530;2023-04-28T08:05:19;7.20;99.90
1461;DHT22;724;49.910;12.530;2023-04-28T08:07:46;7.30;99.90
1461;DHT22;724;49.910;12.530;2023-04-28T08:10:13;7.20;99.90
1461;DHT22;724;49.910;12.530;2023-04-28T08:12:39;7.10;99.90
1461;DHT22;724;49.910;12.530;2023-04-28T08:15:08;7.30;99.90
1461;DHT22;724;49.910;12.530;2023-04-28T08:17:36;7.10;99.90
1461;DHT22;724;49.910;12.530;2023-04-28T08:20:04;7.20;99.90
1461;DHT22;724;49.910;12.530;2023-04-28T08:22:32;7.10;99.90
1461;DHT22;724;49.910;12.530;2023-04-28T08:24:58;7.00;99.90
1461;DHT22;724;49.910;12.530;2023-04-28T08:27:25;7.10;99.90
1461;DHT22;724;49.910;12.530;2023-04-28T08:29:55;7.20;99.90
1461;DHT22;724;49.910;12.530;2023-04-28T08:32:22;7.10;99.90
1461;DHT22;724;49.910;12.530;2023-04-28T08:34:50;7.30;99.90
1461;DHT22;724;49.910;12.530;2023-04-28T08:37:17;7.40;99.90
1461;DHT22;724;49.910;12.530;2023-04-28T08:39:44;7.30;99.90
1461;DHT22;724;49.910;12.530;2023-04-28T08:42:12;7.20;99.90
1461;DHT22;724;49.910;12.530;2023-04-28T08:44:39;7.10;99.90
1461;DHT22;724;49.910;12.530;2023-04-28T08:47:11;7.20;99.90
1461;DHT22;724;49.910;12.530;2023-04-28T08:49:38;7.00;99.90
1461;DHT22;724;49.910;12.530;2023-04-28T08:52:09;7.10;99.90
1461;DHT22;724;49.910;12.530;2023-04-28T08:54:38;7.00;99.90
1461;DHT22;724;49.910;12.530;2023-04-28T08:57:07;6.90;99.90
1461;DHT22;724;49.910;12.530;2023-04-28T08:59:37;6.90;99.90
1461;DHT22;724;49.910;12.530;2023-04-28T09:02:06;6.90;99.90
1461;DHT22;724;49.910;12.530;2023-04-28T09:04:33;6.90;99.90
1461;DHT22;724;49.910;12.530;2023-04-28T09:07:00;7.10;99.90
1461;DHT22;724;49.910;12.530;2023-04-28T09:09:30;7.10;99.90
1461;DHT22;724;49.910;12.530;2023-04-28T09:11:58;7.00;99.90
1461;DHT22;724;49.910;12.530;2023-04-28T09:14:26;7.10;1.00
1461;DHT22;724;49.910;12.530;2023-04-28T09:16:53;7.20;1.00
1461;DHT22;724;49.910;12.530;2023-04-28T09:19:20;7.20;1.00
1461;DHT22;724;49.910;12.530;2023-04-28T09:21:48;7.20;1.00
1461;DHT22;724;49.910;12.530;2023-04-28T09:24:26;7.10;1.00
1461;DHT22;724;49.910;12.530;2023-04-28T09:26:54;7.00;1.00
1461;DHT22;724;49.910;12.530;2023-04-28T09:29:21;7.00;1.00
1461;DHT22;724;49.910;12.530;2023-04-28T09:31:48;7.00;1.00
1461;DHT22;724;49.910;12.530;2023-04-28T09:34:19;7.10;1.00
1461;DHT22;724;49.910;12.530;2023-04-28T09:36:46;6.90;1.00
1461;DHT22;724;49.910;12.530;2023-04-28T09:39:13;7.00;1.00
1461;DHT22;724;49.910;12.530;2023-04-28T09:41:41;6.90;1.00
1461;DHT22;724;49.910;12.530;2023-04-28T09:44:14;7.10;1.00
1461;DHT22;724;49.910;12.530;2023-04-28T09:46:42;6.70;1.00
1461;DHT22;724;49.910;12.530;2023-04-28T09:49:11;7.00;1.00
1461;DHT22;724;49.910;12.530;2023-04-28T09:56:43;7.00;1.00
1461;DHT22;724;49.910;12.530;2023-04-28T09:59:13;7.20;1.00
1461;DHT22;724;49.910;12.530;2023-04-28T10:01:40;6.90;1.00
1461;DHT22;724;49.910;12.530;2023-04-28T10:04:09;6.70;1.00
1461;DHT22;724;49.910;12.530;2023-04-28T10:06:37;6.80;96.10
1461;DHT22;724;49.910;12.530;2023-04-28T10:09:04;6.90;99.90
1461;DHT22;724;49.910;12.530;2023-04-28T10:11:32;7.00;99.90
1461;DHT22;724;49.910;12.530;2023-04-28T10:14:00;6.90;99.90
1461;DHT22;724;49.910;12.530;2023-04-28T10:16:30;6.90;99.90
1461;DHT22;724;49.910;12.530;2023-04-28T10:18:56;6.70;99.90
1461;DHT22;724;49.910;12.530;2023-04-28T10:21:25;6.70;99.90
1461;DHT22;724;49.910;12.530;2023-04-28T10:24:02;6.70;1.00
1461;DHT22;724;49.910;12.530;2023-04-28T10:27:08;6.70;1.00
1461;DHT22;724;49.910;12.530;2023-04-28T10:29:35;6.80;1.00
1461;DHT22;724;49.910;12.530;2023-04-28T10:32:21;6.70;1.00
1461;DHT22;724;49.910;12.530;2023-04-28T10:34:49;6.80;1.00
1461;DHT22;724;49.910;12.530;2023-04-28T10:37:17;6.70;1.00
1461;DHT22;724;49.910;12.530;2023-04-28T10:42:51;6.70;1.00
1461;DHT22;724;49.910;12.530;2023-04-28T10:51:32;6.80;99.90
1461;DHT22;724;49.910;12.530;2023-04-28T10:54:15;7.10;1.00
1461;DHT22;724;49.910;12.530;2023-04-28T10:59:47;6.70;1.00
1461;DHT22;724;49.910;12.530;2023-04-28T11:02:48;6.80;1.00
1461;DHT22;724;49.910;12.530;2023-04-28T11:05:16;6.80;99.90
1461;DHT22;724;49.910;12.530;2023-04-28T11:11:18;6.90;1.00
1461;DHT22;724;49.910;12.530;2023-04-28T11:13:47;7.00;99.90
1461;DHT22;724;49.910;12.530;2023-04-28T11:16:16;7.00;99.90
1461;DHT22;724;49.910;12.530;2023-04-28T11:18:54;7.00;99.90
1461;DHT22;724;49.910;12.530;2023-04-28T11:21:22;6.90;99.90
1461;DHT22;724;49.910;12.530;2023-04-28T11:23:50;7.10;1.00
1461;DHT22;724;49.910;12.530;2023-04-28T11:26:19;7.40;99.90
1461;DHT22;724;49.910;12.530;2023-04-28T11:28:52;7.20;99.90
1461;DHT22;724;49.910;12.530;2023-04-28T11:31:19;7.40;99.90
1461;DHT22;724;49.910;12.530;2023-04-28T11:33:51;7.60;1.00
1461;DHT22;724;49.910;12.530;2023-04-28T11:36:27;7.40;99.90
1461;DHT22;724;49.910;12.530;2023-04-28T11:38:54;7.10;1.00
1461;DHT22;724;49.910;12.530;2023-04-28T11:41:23;7.10;1.00
1461;DHT22;724;49.910;12.530;2023-04-28T11:43:50;7.30;1.00
1461;DHT22;724;49.910;12.530;2023-04-28T11:46:18;7.20;99.90
1461;DHT22;724;49.910;12.530;2023-04-28T11:48:46;7.20;99.90
1461;DHT22;724;49.910;12.530;2023-04-28T11:51:33;7.10;1.00
1461;DHT22;724;49.910;12.530;2023-04-28T11:54:00;7.10;1.00
1461;DHT22;724;49.910;12.530;2023-04-28T11:56:29;7.10;1.00
1461;DHT22;724;49.910;12.530;2023-04-28T11:59:03;7.20;51.70
1461;DHT22;724;49.910;12.530;2023-04-28T12:01:31;7.20;99.90
1461;DHT22;724;49.910;12.530;2023-04-28T12:03:58;7.20;1.00
1461;DHT22;724;49.910;12.530;2023-04-28T12:06:25;7.30;1.00
1461;DHT22;724;49.910;12.530;2023-04-28T12:08:53;7.30;1.00
1461;DHT22;724;49.910;12.530;2023-04-28T12:11:20;7.50;1.00
1461;DHT22;724;49.910;12.530;2023-04-28T12:14:07;7.50;1.00
1461;DHT22;724;49.910;12.530;2023-04-28T12:16:41;7.70;99.90
1461;DHT22;724;49.910;12.530;2023-04-28T12:19:13;7.40;1.00
1461;DHT22;724;49.910;12.530;2023-04-28T12:21:41;7.40;99.90
1461;DHT22;724;49.910;12.530;2023-04-28T12:24:18;7.30;99.90
1461;DHT22;724;49.910;12.530;2023-04-28T12:26:46;7.30;99.90
1461;DHT22;724;49.910;12.530;2023-04-28T12:29:37;7.30;99.90
1461;DHT22;724;49.910;12.530;2023-04-28T12:32:05;7.20;1.00
1461;DHT22;724;49.910;12.530;2023-04-28T12:34:32;7.20;1.00
1461;DHT22;724;49.910;12.530;2023-04-28T12:37:00;7.30;1.00
1461;DHT22;724;49.910;12.530;2023-04-28T12:39:27;7.20;1.00
1461;DHT22;724;49.910;12.530;2023-04-28T12:41:54;7.20;3.70
1461;DHT22;724;49.910;12.530;2023-04-28T12:44:20;7.30;99.90
1461;DHT22;724;49.910;12.530;2023-04-28T12:46:50;7.40;99.90
1461;DHT22;724;49.910;12.530;2023-04-28T12:49:17;7.30;99.90
1461;DHT22;724;49.910;12.530;2023-04-28T12:51:43;7.40;99.90
1461;DHT22;724;49.910;12.530;2023-04-28T12:54:10;7.40;99.90
1461;DHT22;724;49.910;12.530;2023-04-28T12:56:38;7.20;99.90
1461;DHT22;724;49.910;12.530;2023-04-28T12:59:05;7.30;99.90
1461;DHT22;724;49.910;12.530;2023-04-28T13:01:32;7.40;99.90
1461;DHT22;724;49.910;12.530;2023-04-28T13:04:00;7.40;99.90
1461;DHT22;724;49.910;12.530;2023-04-28T13:06:27;7.50;99.90
1461;DHT22;724;49.910;12.530;2023-04-28T13:08:54;7.50;99.90
1461;DHT22;724;49.910;12.530;2023-04-28T13:11:21;7.50;99.90
1461;DHT22;724;49.910;12.530;2023-04-28T13:13:49;7.40;99.90
1461;DHT22;724;49.910;12.530;2023-04-28T13:16:17;7.50;99.90
1461;DHT22;724;49.910;12.530;2023-04-28T13:18:44;7.50;99.90
1461;DHT22;724;49.910;12.530;2023-04-28T13:21:12;7.40;99.90
1461;DHT22;724;49.910;12.530;2023-04-28T13:23:38;7.40;99.90
1461;DHT22;724;49.910;12.530;2023-04-28T13:26:05;7.40;99.90
1461;DHT22;724;49.910;12.530;2023-04-28T13:28:32;7.50;99.90
1461;DHT22;724;49.910;12.530;2023-04-28T13:30:59;7.40;99.90
1461;DHT22;724;49.910;12.530;2023-04-28T13:33:26;7.40;99.90
1461;DHT22;724;49.910;12.530;2023-04-28T13:35:56;7.40;99.90
1461;DHT22;724;49.910;12.530;2023-04-28T13:43:35;7.30;99.90
1461;DHT22;724;49.910;12.530;2023-04-28T13:46:02;7.40;99.90
1461;DHT22;724;49.910;12.530;2023-04-28T13:48:32;7.30;99.90
1461;DHT22;724;49.910;12.530;2023-04-28T13:50:59;7.50;99.90
1461;DHT22;724;49.910;12.530;2023-04-28T13:53:26;7.40;99.90
1461;DHT22;724;49.910;12.530;2023-04-28T13:55:53;7.50;99.90
1461;DHT22;724;49.910;12.530;2023-04-28T13:58:22;7.40;99.90
1461;DHT22;724;49.910;12.530;2023-04-28T14:00:50;7.40;99.90
1461;DHT22;724;49.910;12.530;2023-04-28T14:03:17;7.50;99.90
1461;DHT22;724;49.910;12.530;2023-04-28T14:05:46;7.40;99.90
1461;DHT22;724;49.910;12.530;2023-04-28T14:08:13;7.40;99.90
1461;DHT22;724;49.910;12.530;2023-04-28T14:10:40;7.40;99.90
1461;DHT22;724;49.910;12.530;2023-04-28T14:13:07;7.60;99.90
1461;DHT22;724;49.910;12.530;2023-04-28T14:15:34;7.50;99.90
1461;DHT22;724;49.910;12.530;2023-04-28T14:18:02;7.50;99.90
1461;DHT22;724;49.910;12.530;2023-04-28T14:20:30;7.40;99.90
1461;DHT22;724;49.910;12.530;2023-04-28T14:22:57;7.40;99.90
1461;DHT22;724;49.910;12.530;2023-04-28T14:25:24;7.50;99.90
1461;DHT22;724;49.910;12.530;2023-04-28T14:27:51;7.40;99.90
1461;DHT22;724;49.910;12.530;2023-04-28T14:30:19;7.30;99.90
1461;DHT22;724;49.910;12.530;2023-04-28T14:32:46;7.40;99.90
1461;DHT22;724;49.910;12.530;2023-04-28T14:35:14;7.50;99.90
1461;DHT22;724;49.910;12.530;2023-04-28T14:37:42;7.60;99.90
1461;DHT22;724;49.910;12.530;2023-04-28T14:40:09;7.60;99.90
1461;DHT22;724;49.910;12.530;2023-04-28T14:42:36;7.50;99.90
1461;DHT22;724;49.910;12.530;2023-04-28T14:45:03;7.50;99.90
1461;DHT22;724;49.910;12.530;2023-04-28T14:47:30;7.40;99.90
1461;DHT22;724;49.910;12.530;2023-04-28T14:49:58;7.40;99.90
1461;DHT22;724;49.910;12.530;2023-04-28T14:52:26;7.50;99.90
1461;DHT22;724;49.910;12.530;2023-04-28T14:54:55;7.50;99.90
1461;DHT22;724;49.910;12.530;2023-04-28T14:57:23;7.60;99.90
1461;DHT22;724;49.910;12.530;2023-04-28T14:59:50;7.60;99.90
1461;DHT22;724;49.910;12.530;2023-04-28T15:02:17;7.60;99.90
1461;DHT22;724;49.910;12.530;2023-04-28T15:04:45;7.60;99.90
1461;DHT22;724;49.910;12.530;2023-04-28T15:07:12;7.60;99.90
1461;DHT22;724;49.910;12.530;2023-04-28T15:09:41;7.60;99.90
1461;DHT22;724;49.910;12.530;2023-04-28T15:12:08;7.60;99.90
1461;DHT22;724;49.910;12.530;2023-04-28T15:14:35;7.70;99.90
1461;DHT22;724;49.910;12.530;2023-04-28T15:17:02;7.80;99.90
1461;DHT22;724;49.910;12.530;2023-04-28T15:19:29;7.70;99.90
1461;DHT22;724;49.910;12.530;2023-04-28T15:21:56;7.80;99.90
1461;DHT22;724;49.910;12.530;2023-04-28T15:24:23;7.80;99.90
1461;DHT22;724;49.910;12.530;2023-04-28T15:26:51;7.70;99.90
1461;DHT22;724;49.910;12.530;2023-04-28T15:29:19;7.70;99.90
1461;DHT22;724;49.910;12.530;2023-04-28T15:31:47;7.70;99.90
1461;DHT22;724;49.910;12.530;2023-04-28T15:34:13;7.70;99.90
1461;DHT22;724;49.910;12.530;2023-04-28T15:36:41;7.70;99.90
1461;DHT22;724;49.910;12.530;2023-04-28T15:39:09;7.70;99.90
1461;DHT22;724;49.910;12.530;2023-04-28T15:41:35;7.70;99.90
1461;DHT22;724;49.910;12.530;2023-04-28T15:44:04;7.70;99.90
1461;DHT22;724;49.910;12.530;2023-04-28T15:46:31;7.70;99.90
1461;DHT22;724;49.910;12.530;2023-04-28T15:48:58;7.80;99.90
1461;DHT22;724;49.910;12.530;2023-04-28T15:51:25;7.70;99.90
1461;DHT22;724;49.910;12.530;2023-04-28T15:53:52;7.80;99.90
1461;DHT22;724;49.910;12.530;2023-04-28T15:56:20;7.80;99.90
1461;DHT22;724;49.910;12.530;2023-04-28T15:58:48;7.70;99.90
1461;DHT22;724;49.910;12.530;2023-04-28T16:01:16;7.70;99.90
1461;DHT22;724;49.910;12.530;2023-04-28T16:03:43;7.80;99.90
1461;DHT22;724;49.910;12.530;2023-04-28T16:06:10;7.80;99.90
1461;DHT22;724;49.910;12.530;2023-04-28T16:08:37;7.80;99.90
1461;DHT22;724;49.910;12.530;2023-04-28T16:11:04;7.80;99.90
1461;DHT22;724;49.910;12.530;2023-04-28T16:13:31;7.90;99.90
1461;DHT22;724;49.910;12.530;2023-04-28T16:16:01;7.80;99.90
1461;DHT22;724;49.910;12.530;2023-04-28T16:18:29;7.80;99.90
1461;DHT22;724;49.910;12.530;2023-04-28T16:20:57;7.90;99.90
1461;DHT22;724;49.910;12.530;2023-04-28T16:23:24;7.90;99.90
1461;DHT22;724;49.910;12.530;2023-04-28T16:25:51;7.80;99.90
1461;DHT22;724;49.910;12.530;2023-04-28T16:28:18;7.80;99.90
1461;DHT22;724;49.910;12.530;2023-04-28T16:30:45;7.80;99.90
1461;DHT22;724;49.910;12.530;2023-04-28T16:33:14;7.90;99.90
1461;DHT22;724;49.910;12.530;2023-04-28T16:35:42;7.90;99.90
1461;DHT22;724;49.910;12.530;2023-04-28T16:38:08;8.00;99.90
1461;DHT22;724;49.910;12.530;2023-04-28T16:40:37;8.00;99.90
1461;DHT22;724;49.910;12.530;2023-04-28T16:43:04;8.00;99.90
1461;DHT22;724;49.910;12.530;2023-04-28T16:45:31;8.10;99.90
1461;DHT22;724;49.910;12.530;2023-04-28T16:47:58;8.00;99.90
1461;DHT22;724;49.910;12.530;2023-04-28T16:50:25;8.00;99.90
1461;DHT22;724;49.910;12.530;2023-04-28T16:52:53;8.00;99.90
1461;DHT22;724;49.910;12.530;2023-04-28T16:55:20;7.90;99.90